Time;durP1;ratioP1;P1;durP2;ratioP2;P2;SDS_P1;SDS_P2;PMS_P1;PMS_P2;Temp;Humidity;BMP_temperature;BMP_pressure;BME280_temperature;BME280_humidity;BME280_pressure;Samples;Min_cycle;Max_cycle;Signal;HPM_P1;HPM_P2
2022/11/17 00:03:28;;;;;;;27.58;14.80;;;;;;;7.46;82.23;98597.97;10120816;29;20089;-80
2022/11/17 00:08:33;;;;;;;25.95;14.63;;;;;;;7.20;83.20;98587.09;10107901;29;20064;-80
2022/11/17 00:24:18;;;;;;;29.52;16.63;;;;;;;7.20;83.47;98565.75;10118307;29;20089;-80
2022/11/17 00:29:21;;;;;;;32.55;18.27;;;;;;;7.38;82.89;98547.13;10126182;29;20052;-77
2022/11/17 00:34:23;;;;;;;32.55;17.73;;;;;;;7.22;83.36;98552.25;10131665;29;20049;-82
2022/11/17 00:39:28;;;;;;;32.95;19.30;;;;;;;6.98;84.08;98555.44;10092126;29;1065802;-81
2022/11/17 00:44:31;;;;;;;34.05;17.85;;;;;;;7.09;83.56;98549.06;10115827;29;20076;-80
2022/11/17 00:49:35;;;;;;;30.13;17.65;;;;;;;6.88;83.92;98538.59;10128136;29;20109;-82
2022/11/17 00:54:39;;;;;;;34.35;18.23;;;;;;;6.92;84.08;98532.00;10127697;29;20072;-82
2022/11/17 00:59:42;;;;;;;34.58;18.95;;;;;;;7.03;83.31;98513.97;10128769;29;20140;-83
2022/11/17 01:04:45;;;;;;;33.33;17.55;;;;;;;6.99;83.26;98504.59;10123444;29;20140;-81
2022/11/17 01:09:49;;;;;;;31.15;17.73;;;;;;;6.90;83.54;98496.59;10121081;29;20091;-83
2022/11/17 01:14:52;;;;;;;38.20;20.90;;;;;;;6.93;83.21;98486.47;10120667;29;20076;-81
2022/11/17 01:19:55;;;;;;;32.55;18.85;;;;;;;6.88;82.95;98486.06;10121485;29;20074;-83
2022/11/17 01:24:59;;;;;;;37.67;17.98;;;;;;;6.79;82.85;98474.41;10123229;29;20102;-80
2022/11/17 01:30:02;;;;;;;37.88;20.20;;;;;;;6.63;83.65;98471.53;10111068;29;20092;-79
2022/11/17 01:35:05;;;;;;;30.08;18.30;;;;;;;6.54;84.23;98456.41;10105033;29;20481;-82
2022/11/17 01:40:13;;;;;;;34.08;17.60;;;;;;;6.61;83.86;98447.69;10123366;29;20792;-81
2022/11/17 01:45:20;;;;;;;29.92;18.13;;;;;;;6.50;83.68;98436.31;10100357;29;20045;-83
2022/11/17 01:50:30;;;;;;;35.92;17.88;;;;;;;6.58;83.38;98436.44;10119918;29;20056;-83
2022/11/17 01:55:38;;;;;;;30.92;17.90;;;;;;;6.56;83.46;98423.25;10128759;29;20048;-83
2022/11/17 02:00:41;;;;;;;27.27;16.27;;;;;;;6.53;83.24;98412.06;10114750;29;20100;-81
2022/11/17 02:05:51;;;;;;;28.92;17.40;;;;;;;6.52;83.32;98419.19;10117256;29;20120;-83
2022/11/17 02:10:56;;;;;;;25.17;14.48;;;;;;;6.74;82.45;98407.31;10098986;29;20553;-83
2022/11/17 02:15:59;;;;;;;22.75;14.02;;;;;;;6.74;81.91;98401.97;10111477;29;20049;-82
2022/11/17 02:21:22;;;;;;;22.20;14.18;;;;;;;6.88;81.53;98400.66;10098387;29;20041;-83
2022/11/17 02:26:54;;;;;;;24.40;16.15;;;;;;;6.78;81.94;98376.69;10113400;29;20044;-81
2022/11/17 02:32:05;;;;;;;23.87;14.57;;;;;;;6.91;81.64;98380.84;10097442;29;20073;-81
2022/11/17 02:37:12;;;;;;;18.15;12.80;;;;;;;6.95;81.26;98359.06;10128399;29;20127;-80
2022/11/17 02:44:02;;;;;;;19.75;13.05;;;;;;;6.83;81.78;98336.22;10123299;29;20194;-80
2022/11/17 02:47:54;;;;;;;22.70;12.93;;;;;;;6.71;81.93;98319.56;10143127;29;20505;-83
2022/11/17 02:52:56;;;;;;;17.42;12.20;;;;;;;6.82;81.78;98318.50;10124819;29;20063;-83
2022/11/17 02:57:59;;;;;;;16.52;10.57;;;;;;;6.83;81.54;98312.19;10119294;29;20479;-80
2022/11/17 03:03:16;;;;;;;16.55;11.15;;;;;;;6.73;82.08;98298.91;10122503;29;20132;-81
2022/11/17 03:08:30;;;;;;;17.25;11.63;;;;;;;6.57;82.74;98290.72;10103132;29;20167;-80
2022/11/17 03:13:46;;;;;;;16.33;10.57;;;;;;;6.86;81.90;98295.88;10102310;29;20049;-81
2022/11/17 03:19:00;;;;;;;17.10;11.45;;;;;;;6.69;82.49;98286.00;10116836;29;20163;-80
2022/11/17 03:24:06;;;;;;;12.73;10.40;;;;;;;6.71;83.02;98295.53;10122610;29;20514;-79
2022/11/17 03:29:14;;;;;;;16.23;12.25;;;;;;;6.79;82.16;98297.47;10113676;29;20124;-79
2022/11/17 03:34:23;;;;;;;13.70;10.82;;;;;;;6.78;82.73;98301.13;10110714;29;20503;-79
2022/11/17 03:39:31;;;;;;;15.73;10.90;;;;;;;6.86;82.47;98287.88;10120416;29;20069;-79
2022/11/17 03:44:39;;;;;;;16.30;11.27;;;;;;;6.65;84.68;98276.66;10101457;29;20048;-80
2022/11/17 03:49:49;;;;;;;16.27;12.32;;;;;;;6.37;88.14;98263.34;10128157;29;20036;-78
2022/11/17 03:54:52;;;;;;;18.35;12.15;;;;;;;6.22;89.31;98260.31;10146914;29;20048;-80
2022/11/17 04:00:03;;;;;;;16.95;11.77;;;;;;;6.17;90.04;98263.44;10109399;29;20090;-80
2022/11/17 04:05:17;;;;;;;18.17;12.90;;;;;;;6.32;89.67;98258.44;10108191;29;20052;-80
2022/11/17 04:10:24;;;;;;;19.65;13.10;;;;;;;6.12;90.94;98252.38;10099267;29;20128;-80
2022/11/17 04:20:52;;;;;;;19.67;14.60;;;;;;;6.12;91.64;98233.72;10110044;29;20484;-79
2022/11/17 04:31:18;;;;;;;20.13;12.45;;;;;;;5.94;93.21;98230.16;10126558;29;20049;-79
2022/11/17 04:36:24;;;;;;;22.08;12.85;;;;;;;6.01;92.71;98243.75;10101003;29;20483;-78
2022/11/17 04:46:49;;;;;;;24.00;15.23;;;;;;;5.79;93.78;98223.63;10100713;29;20044;-78
2022/11/17 04:51:54;;;;;;;21.60;14.07;;;;;;;5.90;93.12;98228.78;10099291;29;20150;-78
2022/11/17 04:56:57;;;;;;;22.23;14.35;;;;;;;5.90;96.25;98220.81;10120315;29;20083;-80
2022/11/17 05:02:00;;;;;;;21.20;15.27;;;;;;;5.78;95.13;98209.47;10144743;29;20052;-81
2022/11/17 05:07:09;;;;;;;22.70;14.38;;;;;;;5.65;94.31;98214.28;10132570;29;20044;-79
2022/11/17 05:17:32;;;;;;;24.30;13.60;;;;;;;5.67;94.47;98201.66;10111677;29;20140;-78
2022/11/17 05:28:08;;;;;;;24.85;13.20;;;;;;;5.66;95.90;98173.38;10060299;29;20056;-80
2022/11/17 05:33:11;;;;;;;19.08;13.43;;;;;;;5.45;96.65;98163.75;10121819;29;20100;-79
2022/11/17 05:38:15;;;;;;;22.30;13.00;;;;;;;5.49;96.61;98173.16;10119679;29;20045;-80
2022/11/17 05:43:18;;;;;;;22.48;12.73;;;;;;;5.29;98.72;98166.19;10127195;29;20119;-78
2022/11/17 05:48:20;;;;;;;20.73;13.27;;;;;;;5.39;97.89;98168.84;10130581;29;20571;-79
2022/11/17 05:53:25;;;;;;;19.95;11.07;;;;;;;5.46;95.34;98151.31;10130531;29;20195;-79
2022/11/17 05:58:32;;;;;;;23.42;12.57;;;;;;;5.39;95.43;98153.69;10153299;29;20326;-79
2022/11/17 06:03:42;;;;;;;18.92;12.57;;;;;;;5.57;95.26;98137.81;10152508;29;20057;-80
2022/11/17 06:08:46;;;;;;;21.63;12.85;;;;;;;5.38;95.84;98138.72;10114073;29;20048;-79
2022/11/17 06:13:49;;;;;;;19.95;12.27;;;;;;;5.27;96.15;98121.09;10103981;29;20128;-79
2022/11/17 06:18:55;;;;;;;22.88;12.45;;;;;;;5.21;95.08;98112.84;10104844;29;20478;-79
2022/11/17 06:24:01;;;;;;;20.83;11.85;;;;;;;5.14;95.63;98093.16;10120004;29;20083;-79
2022/11/17 06:29:05;;;;;;;19.50;11.80;;;;;;;5.29;95.48;98097.00;10125501;29;20116;-79
2022/11/17 06:34:08;;;;;;;19.55;12.75;;;;;;;5.28;95.25;98088.16;10113984;29;20041;-78
2022/11/17 06:39:12;;;;;;;18.33;12.45;;;;;;;5.23;95.23;98093.09;10112402;29;20507;-78
2022/11/17 06:44:15;;;;;;;15.23;9.57;;;;;;;5.31;94.92;98105.69;10138749;29;20712;-79
2022/11/17 06:49:18;;;;;;;16.73;9.55;;;;;;;5.26;94.50;98098.13;10111812;29;20051;-78
2022/11/17 06:54:22;;;;;;;14.30;10.13;;;;;;;5.29;94.84;98102.31;10115067;29;20144;-78
2022/11/17 06:59:25;;;;;;;12.85;8.07;;;;;;;5.37;94.09;98107.75;10128161;29;20057;-78
2022/11/17 07:04:28;;;;;;;13.07;8.48;;;;;;;5.40;93.64;98094.16;10129220;29;20048;-78
2022/11/17 07:09:32;;;;;;;8.25;6.30;;;;;;;5.43;93.04;98088.53;10120033;29;20060;-78
2022/11/17 07:14:35;;;;;;;7.72;6.05;;;;;;;5.41;93.30;98089.69;10106931;29;20495;-77
2022/11/17 07:19:38;;;;;;;7.22;6.53;;;;;;;5.35;93.63;98093.75;10099608;29;20099;-78
2022/11/17 07:24:42;;;;;;;8.10;5.70;;;;;;;5.49;93.19;98087.94;10117008;29;20438;-76
2022/11/17 07:29:45;;;;;;;5.88;5.10;;;;;;;5.54;92.42;98091.97;10136582;29;20463;-77
2022/11/17 07:34:48;;;;;;;6.15;5.28;;;;;;;5.37;92.13;98094.44;10139149;29;20049;-77
2022/11/17 07:39:52;;;;;;;7.15;5.45;;;;;;;5.44;92.25;98097.38;10129120;29;20502;-77
2022/11/17 07:44:55;;;;;;;6.78;5.18;;;;;;;5.38;94.76;98096.13;10129180;29;20084;-77
2022/11/17 07:49:58;;;;;;;6.35;5.20;;;;;;;5.15;95.50;98094.81;10137264;29;20045;-76
2022/11/17 07:55:02;;;;;;;7.45;5.60;;;;;;;5.36;94.67;98089.28;10154219;23;20121;-77
2022/11/17 08:00:06;;;;;;;6.85;5.47;;;;;;;5.70;95.11;98097.50;10088735;29;20049;-77
2022/11/17 08:05:16;;;;;;;6.53;5.55;;;;;;;5.47;93.43;98076.59;10082319;29;20054;-78
2022/11/17 08:10:20;;;;;;;5.00;4.50;;;;;;;5.75;92.14;98081.06;10084751;29;20037;-77
2022/11/17 08:15:23;;;;;;;5.72;5.13;;;;;;;5.93;90.71;98076.63;10089886;29;20041;-77
2022/11/17 08:20:27;;;;;;;4.50;4.10;;;;;;;5.92;89.79;98069.59;10075805;29;20054;-78
2022/11/17 08:25:32;;;;;;;4.70;4.28;;;;;;;5.81;90.01;98073.31;10077015;29;20044;-77
2022/11/17 08:30:35;;;;;;;4.95;4.13;;;;;;;6.06;89.30;98074.41;10077176;29;20049;-77
2022/11/17 08:35:38;;;;;;;3.72;3.38;;;;;;;5.68;89.46;98081.69;10073924;29;20045;-77
2022/11/17 08:40:42;;;;;;;5.25;4.50;;;;;;;6.05;89.03;98064.72;10089776;29;20049;-77
2022/11/17 08:45:45;;;;;;;5.75;4.60;;;;;;;6.04;89.05;98083.56;10073079;29;20056;-77
2022/11/17 08:50:48;;;;;;;5.10;4.15;;;;;;;6.10;89.38;98081.09;10091890;29;20084;-78
2022/11/17 08:55:52;;;;;;;6.43;5.18;;;;;;;6.02;89.74;98072.19;10083115;29;20041;-77
2022/11/17 09:00:55;;;;;;;7.88;5.15;;;;;;;5.74;92.13;98066.91;10088945;29;20132;-77
2022/11/17 09:06:05;;;;;;;5.43;3.90;;;;;;;5.75;93.16;98083.75;10082265;29;20048;-77
2022/11/17 09:11:15;;;;;;;7.28;5.72;;;;;;;5.44;94.84;98092.88;10085591;29;20053;-77
2022/11/17 09:16:18;;;;;;;5.82;4.65;;;;;;;5.25;100.00;98088.47;10085456;29;20116;-77
2022/11/17 09:21:21;;;;;;;4.75;4.25;;;;;;;5.46;100.00;98098.06;10090146;29;20411;-77
2022/11/17 09:26:25;;;;;;;6.63;4.55;;;;;;;5.57;96.48;98089.88;10091189;29;20488;-77
2022/11/17 09:31:28;;;;;;;5.03;4.47;;;;;;;5.67;95.04;98095.13;10088140;29;20423;-75
2022/11/17 09:36:32;;;;;;;7.00;5.05;;;;;;;5.86;93.90;98095.00;10089046;29;20044;-75
2022/11/17 09:41:41;;;;;;;8.23;4.53;;;;;;;5.74;94.29;98090.91;10082152;29;20053;-75
2022/11/17 09:46:55;;;;;;;4.85;3.45;;;;;;;5.68;94.72;98102.16;10081917;29;20505;-75
2022/11/17 09:52:05;;;;;;;4.68;4.07;;;;;;;5.66;94.71;98098.78;10077494;29;20048;-74
2022/11/17 09:57:20;;;;;;;5.90;4.07;;;;;;;5.69;94.48;98082.50;10076477;29;20041;-76
2022/11/17 10:02:23;;;;;;;5.85;4.60;;;;;;;5.83;94.05;98091.81;10071794;29;20080;-74
2022/11/17 10:07:27;;;;;;;5.00;4.35;;;;;;;5.79;93.85;98106.41;10080611;29;20388;-75
2022/11/17 10:12:42;;;;;;;5.65;5.03;;;;;;;5.90;93.27;98107.06;10085334;29;20135;-75
2022/11/17 10:17:45;;;;;;;5.68;4.63;;;;;;;5.86;93.27;98110.16;10085643;29;20041;-76
2022/11/17 10:22:49;;;;;;;6.28;4.22;;;;;;;5.76;93.55;98114.69;10088560;29;20060;-74
2022/11/17 10:27:53;;;;;;;3.67;3.28;;;;;;;6.08;93.40;98107.06;10092815;29;20041;-75
2022/11/17 10:32:58;;;;;;;4.53;3.75;;;;;;;6.14;92.80;98109.16;10083544;29;20384;-74
2022/11/17 10:38:05;;;;;;;6.35;3.15;;;;;;;5.93;94.02;98101.44;10084673;29;20053;-75
2022/11/17 10:43:23;;;;;;;5.70;3.60;;;;;;;5.94;95.83;98110.25;10092330;29;20056;-75
2022/11/17 10:48:31;;;;;;;4.82;4.32;;;;;;;5.92;94.35;98122.88;10084734;29;20117;-74
2022/11/17 10:53:37;;;;;;;5.32;4.22;;;;;;;6.13;93.76;98119.94;10089231;29;20511;-75
2022/11/17 10:59:02;;;;;;;6.75;4.05;;;;;;;6.14;94.33;98119.81;10065773;29;20445;-75
2022/11/17 11:04:07;;;;;;;5.32;4.55;;;;;;;6.23;94.00;98120.72;10075771;29;20069;-76
2022/11/17 11:09:13;;;;;;;5.85;4.78;;;;;;;6.40;93.40;98121.72;10080586;29;20570;-74
2022/11/17 11:14:30;;;;;;;5.32;3.80;;;;;;;6.52;93.58;98116.97;10098889;29;20396;-74
2022/11/17 11:19:34;;;;;;;4.90;3.60;;;;;;;6.40;93.05;98125.22;10065430;29;20049;-74
2022/11/17 11:24:45;;;;;;;5.57;4.05;;;;;;;6.43;93.58;98118.75;10066061;29;20392;-74
2022/11/17 11:29:58;;;;;;;5.47;4.53;;;;;;;6.61;93.45;98126.75;10069731;29;20076;-77
2022/11/17 11:35:36;;;;;;;7.65;4.53;;;;;;;6.70;92.76;98123.13;10092135;29;20407;-76
2022/11/17 11:40:43;;;;;;;5.00;4.45;;;;;;;6.47;92.96;98133.41;10076746;29;20064;-76
2022/11/17 11:45:53;;;;;;;5.20;4.10;;;;;;;6.65;93.18;98133.44;10086563;29;20091;-77
2022/11/17 11:50:58;;;;;;;6.80;4.20;;;;;;;6.83;92.76;98142.25;10083924;29;20096;-77
2022/11/17 11:56:08;;;;;;;5.03;4.25;;;;;;;6.84;92.34;98143.09;10057775;29;20468;-77
2022/11/17 12:01:16;;;;;;;8.70;4.68;;;;;;;6.92;92.49;98142.34;10073793;29;20049;-77
2022/11/17 12:06:42;;;;;;;7.43;4.45;;;;;;;6.68;92.92;98148.28;10086040;29;20076;-77
2022/11/17 12:12:02;;;;;;;7.15;4.43;;;;;;;6.92;92.92;98151.19;10071752;29;20045;-77
2022/11/17 12:17:22;;;;;;;5.47;4.35;;;;;;;6.97;92.62;98151.56;10084030;29;20419;-77
2022/11/17 12:22:56;;;;;;;6.35;4.10;;;;;;;7.12;93.14;98145.66;10078317;29;20513;-77
2022/11/17 12:28:18;;;;;;;4.55;3.83;;;;;;;7.34;93.39;98152.28;10081600;29;20068;-77
2022/11/17 12:33:22;;;;;;;4.43;4.03;;;;;;;7.61;93.70;98145.94;10073734;29;20057;-76
2022/11/17 12:38:39;;;;;;;7.22;4.35;;;;;;;7.59;93.87;98159.44;10076810;29;20151;-76
2022/11/17 12:43:42;;;;;;;4.80;4.30;;;;;;;7.68;92.45;98163.84;10084624;29;20518;-76
2022/11/17 12:48:55;;;;;;;5.43;3.38;;;;;;;7.52;92.84;98160.25;10075290;29;20053;-76
2022/11/17 12:54:13;;;;;;;5.32;3.90;;;;;;;7.54;92.68;98167.09;10057099;29;20072;-77
2022/11/17 12:59:46;;;;;;;5.32;3.50;;;;;;;7.49;92.40;98177.44;10074759;29;20057;-76
2022/11/17 13:04:57;;;;;;;3.45;2.97;;;;;;;7.45;92.98;98168.03;10074516;29;20049;-76
2022/11/17 13:10:01;;;;;;;3.22;2.92;;;;;;;7.31;92.16;98169.47;10071349;29;20053;-77
2022/11/17 13:15:05;;;;;;;2.85;2.63;;;;;;;7.27;92.33;98176.13;10080412;29;20046;-77
2022/11/17 13:20:23;;;;;;;3.75;3.42;;;;;;;7.23;92.23;98172.91;10082819;29;20045;-77
2022/11/17 13:25:25;;;;;;;6.30;3.42;;;;;;;7.44;93.06;98172.56;10056046;29;20069;-77
2022/11/17 13:30:29;;;;;;;3.92;3.58;;;;;;;7.53;92.31;98178.78;10060649;29;20045;-77
2022/11/17 13:35:35;;;;;;;3.42;3.13;;;;;;;7.44;92.09;98185.06;10069237;29;20767;-77
2022/11/17 13:40:40;;;;;;;5.18;3.10;;;;;;;7.60;91.55;98182.50;10074613;29;20472;-76
2022/11/17 13:45:44;;;;;;;6.25;3.40;;;;;;;7.63;91.16;98186.69;10080156;29;20049;-77
2022/11/17 13:50:48;;;;;;;4.18;3.70;;;;;;;7.59;91.38;98185.31;10080429;29;20095;-76
2022/11/17 13:55:52;;;;;;;5.47;3.75;;;;;;;7.40;91.66;98195.22;10076291;29;20050;-76
2022/11/17 14:00:57;;;;;;;3.53;3.08;;;;;;;7.42;92.29;98197.75;10086457;29;20046;-77
2022/11/17 14:06:04;;;;;;;4.38;3.83;;;;;;;7.71;91.64;98198.25;10056739;29;20045;-77
2022/11/17 14:11:15;;;;;;;3.60;3.30;;;;;;;7.75;90.72;98203.28;10075280;29;20045;-77
2022/11/17 14:16:27;;;;;;;3.50;3.13;;;;;;;7.83;91.11;98200.66;10082443;29;20041;-77
2022/11/17 14:21:32;;;;;;;3.70;3.30;;;;;;;7.75;90.03;98201.44;10083349;29;20047;-79
2022/11/17 14:26:43;;;;;;;5.47;3.90;;;;;;;7.91;90.31;98198.00;10086870;29;20140;-77
2022/11/17 14:31:46;;;;;;;3.50;3.10;;;;;;;7.80;90.36;98207.16;10094068;29;20048;-77
2022/11/17 14:36:53;;;;;;;4.70;4.10;;;;;;;7.79;90.57;98209.97;10095625;29;20049;-76
2022/11/17 14:41:56;;;;;;;4.25;3.85;;;;;;;7.83;90.28;98224.69;10102359;29;20080;-76
2022/11/17 14:46:59;;;;;;;4.88;4.13;;;;;;;7.89;90.21;98224.06;10098226;29;20068;-77
2022/11/17 14:52:04;;;;;;;3.95;3.60;;;;;;;7.77;90.30;98220.84;10098796;29;20059;-76
2022/11/17 14:57:06;;;;;;;10.43;5.28;;;;;;;7.82;90.31;98229.22;10091870;29;20077;-76
2022/11/17 15:02:10;;;;;;;7.03;4.45;;;;;;;7.83;90.35;98235.38;10087404;29;20045;-76
2022/11/17 15:07:14;;;;;;;8.75;4.40;;;;;;;7.72;90.55;98241.84;10100079;29;20523;-76
2022/11/17 15:12:17;;;;;;;7.03;5.22;;;;;;;7.64;90.63;98241.78;10100005;29;20105;-76
2022/11/17 15:17:20;;;;;;;8.20;6.30;;;;;;;7.48;90.38;98234.50;10092385;29;20046;-77
2022/11/17 15:22:24;;;;;;;6.25;5.65;;;;;;;7.54;90.51;98247.22;10100470;29;20052;-77
2022/11/17 15:27:27;;;;;;;7.65;4.53;;;;;;;7.44;90.47;98262.53;10097585;29;20071;-76
2022/11/17 15:32:29;;;;;;;9.30;7.05;;;;;;;7.36;90.58;98257.97;10105263;29;20063;-76
2022/11/17 15:37:34;;;;;;;9.63;7.10;;;;;;;7.23;91.01;98266.38;10099525;29;20053;-75
2022/11/17 15:42:36;;;;;;;5.90;5.30;;;;;;;7.23;91.00;98269.03;10096323;29;20064;-76
2022/11/17 15:47:39;;;;;;;6.88;5.20;;;;;;;7.21;91.02;98262.19;10097701;29;20098;-75
2022/11/17 15:52:43;;;;;;;5.43;4.93;;;;;;;7.28;90.82;98273.94;10091371;29;20084;-76
2022/11/17 15:58:06;;;;;;;25.85;15.80;;;;;;;7.22;91.04;98275.38;10092922;29;20125;-76
2022/11/17 16:03:09;;;;;;;6.78;6.07;;;;;;;7.24;91.19;98278.75;10090351;29;20045;-76
2022/11/17 16:08:13;;;;;;;5.68;5.18;;;;;;;7.06;91.34;98275.25;10121002;29;20049;-76
2022/11/17 16:13:16;;;;;;;10.25;8.18;;;;;;;7.15;91.38;98302.84;10085526;29;20052;-76
2022/11/17 16:18:19;;;;;;;19.63;10.02;;;;;;;7.26;90.62;98302.59;10078497;29;20056;-76
2022/11/17 16:23:23;;;;;;;15.15;9.95;;;;;;;7.19;90.72;98305.06;10089477;29;20087;-76
2022/11/17 16:28:26;;;;;;;6.90;6.20;;;;;;;6.93;91.10;98309.47;10064786;29;20041;-76
2022/11/17 16:33:29;;;;;;;22.98;13.23;;;;;;;7.14;90.34;98315.38;10062802;29;20069;-75
2022/11/17 16:38:33;;;;;;;22.65;12.38;;;;;;;7.10;90.22;98308.63;10086052;29;20037;-75
2022/11/17 16:43:36;;;;;;;8.35;7.10;;;;;;;6.99;90.36;98311.53;10088594;29;20052;-76
2022/11/17 16:48:47;;;;;;;10.30;7.32;;;;;;;6.90;90.86;98318.63;10088550;29;20048;-77
2022/11/17 16:53:57;;;;;;;12.88;7.97;;;;;;;6.91;90.62;98311.44;10086344;29;20072;-76
2022/11/17 16:59:00;;;;;;;20.50;13.63;;;;;;;6.90;90.36;98309.78;10089508;29;20073;-77
2022/11/17 17:04:05;;;;;;;8.68;6.90;;;;;;;6.80;90.46;98316.00;10095744;29;20060;-76
2022/11/17 17:09:11;;;;;;;11.52;7.90;;;;;;;6.92;90.52;98321.16;10090745;29;20052;-77
2022/11/17 17:14:15;;;;;;;7.57;6.80;;;;;;;6.85;90.25;98327.03;10092972;29;20037;-77
2022/11/17 17:19:18;;;;;;;10.10;6.68;;;;;;;6.84;90.49;98325.38;10084568;29;20096;-77
2022/11/17 17:24:22;;;;;;;8.63;7.47;;;;;;;6.71;90.41;98326.72;10084777;29;20049;-76
2022/11/17 17:29:25;;;;;;;9.73;7.47;;;;;;;6.75;90.07;98331.63;10091435;29;20444;-77
2022/11/17 17:34:28;;;;;;;9.93;8.13;;;;;;;6.78;90.31;98335.81;10090478;29;20414;-77
2022/11/17 17:39:33;;;;;;;8.55;6.63;;;;;;;6.63;90.50;98335.47;10074584;29;20102;-77
2022/11/17 17:44:36;;;;;;;8.05;6.68;;;;;;;6.77;90.07;98347.47;10083005;29;20053;-77
2022/11/17 17:49:38;;;;;;;9.98;7.70;;;;;;;6.82;90.24;98347.88;10085493;29;20044;-77
2022/11/17 17:54:43;;;;;;;9.77;7.72;;;;;;;6.84;90.50;98348.56;10082092;29;20049;-78
2022/11/17 17:59:45;;;;;;;11.13;8.35;;;;;;;6.75;90.39;98357.47;10080062;29;20116;-78
2022/11/17 18:04:48;;;;;;;10.63;8.48;;;;;;;6.73;90.28;98360.28;10074334;29;20386;-77
2022/11/17 18:09:52;;;;;;;24.00;13.18;;;;;;;6.74;90.18;98350.44;10054228;29;20049;-77
2022/11/17 18:14:55;;;;;;;24.90;14.43;;;;;;;6.65;90.26;98354.84;10078697;29;20403;-77
2022/11/17 18:19:58;;;;;;;26.67;15.52;;;;;;;6.50;90.78;98365.19;10055429;29;20057;-77
2022/11/17 18:25:02;;;;;;;16.27;10.18;;;;;;;6.66;89.76;98361.00;10069074;29;20508;-77
2022/11/17 18:30:10;;;;;;;14.32;10.20;;;;;;;6.48;90.73;98372.47;10088102;29;20045;-77
2022/11/17 18:35:13;;;;;;;21.23;12.70;;;;;;;6.55;90.70;98373.56;10083114;29;20048;-77
2022/11/17 18:40:17;;;;;;;12.57;9.93;;;;;;;6.53;90.12;98375.56;10063254;29;20133;-77
2022/11/17 18:45:19;;;;;;;14.02;10.30;;;;;;;6.62;90.10;98379.16;10084467;29;20124;-77
2022/11/17 18:50:22;;;;;;;17.40;9.52;;;;;;;6.68;89.97;98373.22;10071443;29;20053;-77
2022/11/17 18:55:27;;;;;;;13.00;9.32;;;;;;;6.68;89.94;98381.22;10085958;29;20045;-78
2022/11/17 19:00:29;;;;;;;13.68;9.10;;;;;;;6.63;89.58;98381.66;10088068;29;20121;-77
2022/11/17 19:05:34;;;;;;;16.35;10.00;;;;;;;6.61;89.77;98380.16;10082004;29;20076;-77
2022/11/17 19:10:38;;;;;;;14.32;10.27;;;;;;;6.64;90.42;98379.84;10084903;29;20400;-77
2022/11/17 19:15:41;;;;;;;16.17;9.70;;;;;;;6.65;90.13;98380.69;10089461;29;20470;-77
2022/11/17 19:20:44;;;;;;;15.30;9.80;;;;;;;6.63;89.98;98387.00;10092846;29;20047;-76
2022/11/17 19:25:48;;;;;;;25.20;15.48;;;;;;;6.61;89.80;98386.31;10090715;29;20504;-77
2022/11/17 19:30:50;;;;;;;31.65;18.27;;;;;;;6.56;90.24;98388.59;10090938;29;20115;-77
2022/11/17 19:35:53;;;;;;;31.45;18.83;;;;;;;6.64;90.47;98390.53;10091552;29;20051;-77
2022/11/17 19:41:01;;;;;;;19.17;12.68;;;;;;;6.68;90.15;98393.72;10089727;29;20045;-76
2022/11/17 19:46:06;;;;;;;14.00;10.30;;;;;;;6.65;90.07;98394.03;10091431;29;20045;-77
2022/11/17 19:51:15;;;;;;;14.80;9.93;;;;;;;6.65;90.09;98412.69;10083009;29;20121;-77
2022/11/17 19:56:20;;;;;;;15.02;11.07;;;;;;;6.54;89.70;98411.06;10084594;29;20049;-78
2022/11/17 20:01:25;;;;;;;17.40;10.48;;;;;;;6.53;90.09;98415.56;10069870;29;20045;-77
2022/11/17 20:06:31;;;;;;;15.45;10.05;;;;;;;6.47;89.98;98423.28;10059068;29;20105;-76
2022/11/17 20:11:36;;;;;;;15.40;9.63;;;;;;;6.37;90.13;98426.84;10059713;29;20546;-76
2022/11/17 20:16:39;;;;;;;20.38;10.23;;;;;;;6.34;90.26;98429.81;10059972;29;20144;-77
2022/11/17 20:21:42;;;;;;;16.63;10.65;;;;;;;6.33;90.13;98435.25;10058212;29;20164;-77
2022/11/17 20:26:46;;;;;;;18.20;11.02;;;;;;;6.29;90.14;98437.38;10057983;29;20049;-76
2022/11/17 20:31:49;;;;;;;20.58;11.98;;;;;;;6.27;90.17;98442.00;10070879;29;20102;-76
2022/11/17 20:36:51;;;;;;;17.25;11.75;;;;;;;6.26;89.86;98451.00;10052624;29;20078;-76
2022/11/17 20:41:55;;;;;;;21.67;11.45;;;;;;;6.26;90.10;98460.84;10029215;29;20054;-76
2022/11/17 20:46:58;;;;;;;15.15;9.93;;;;;;;6.29;90.74;98472.06;10053860;29;20357;-76
2022/11/17 20:52:01;;;;;;;16.83;11.00;;;;;;;6.40;90.50;98474.53;10050848;29;20166;-77
2022/11/17 20:57:05;;;;;;;16.67;11.27;;;;;;;6.48;90.91;98481.84;10057591;29;20650;-77
2022/11/17 21:02:09;;;;;;;17.83;10.05;;;;;;;6.55;91.03;98490.09;10020648;29;20053;-76
2022/11/17 21:07:12;;;;;;;17.85;11.95;;;;;;;6.62;91.05;98499.19;10035522;29;20041;-76
2022/11/17 21:12:16;;;;;;;15.60;11.43;;;;;;;6.66;90.83;98495.25;10040905;29;20049;-76
2022/11/17 21:22:39;;;;;;;22.65;12.43;;;;;;;6.78;90.66;98517.28;10059197;29;20056;-76
2022/11/17 21:27:43;;;;;;;18.45;11.50;;;;;;;6.81;90.98;98506.31;10087622;29;20095;-76
2022/11/17 21:32:46;;;;;;;18.25;10.85;;;;;;;6.79;90.46;98513.59;10050102;29;20140;-76
2022/11/17 21:37:49;;;;;;;18.60;11.80;;;;;;;6.79;90.62;98521.63;10045124;29;20049;-77
2022/11/17 21:42:53;;;;;;;19.02;12.23;;;;;;;6.82;90.74;98524.00;10040717;29;20107;-77
2022/11/17 21:47:57;;;;;;;21.35;11.43;;;;;;;6.85;90.85;98532.53;10054133;29;20060;-77
2022/11/17 21:53:01;;;;;;;23.33;12.07;;;;;;;6.80;90.43;98532.16;10072388;29;20096;-76
2022/11/17 21:58:05;;;;;;;22.10;12.20;;;;;;;6.67;90.49;98541.47;10094088;29;20491;-76
2022/11/17 22:03:08;;;;;;;19.73;11.85;;;;;;;6.78;90.49;98547.47;10095399;29;20127;-76
2022/11/17 22:08:11;;;;;;;18.27;12.88;;;;;;;6.76;90.54;98544.09;10060561;29;20428;-76
2022/11/17 22:13:15;;;;;;;19.25;12.25;;;;;;;6.73;90.12;98556.88;10090618;29;20053;-76
2022/11/17 22:18:18;;;;;;;25.70;12.88;;;;;;;6.73;90.12;98555.06;10094329;29;20472;-76
2022/11/17 22:23:20;;;;;;;20.85;12.57;;;;;;;6.71;89.97;98559.69;10094046;29;20045;-76
2022/11/17 22:28:25;;;;;;;19.73;13.35;;;;;;;6.71;90.32;98566.84;10067474;29;20045;-76
2022/11/17 22:33:28;;;;;;;20.38;13.60;;;;;;;6.70;90.29;98574.03;10093941;29;20161;-76
2022/11/17 22:38:30;;;;;;;22.13;13.18;;;;;;;6.62;89.88;98565.91;10085119;29;20389;-77
2022/11/17 22:43:35;;;;;;;19.23;12.35;;;;;;;6.59;90.16;98566.19;10055183;29;20049;-78
2022/11/17 22:48:38;;;;;;;19.48;13.55;;;;;;;6.56;90.14;98569.97;10056111;29;20053;-77
2022/11/17 22:53:41;;;;;;;20.98;13.98;;;;;;;6.54;89.86;98574.59;10063137;29;20439;-77
2022/11/17 22:58:48;;;;;;;23.75;13.65;;;;;;;6.51;90.00;98574.91;10063756;29;20042;-77
2022/11/17 23:03:51;;;;;;;25.38;13.48;;;;;;;6.49;90.12;98579.53;10065266;29;20056;-77
2022/11/17 23:08:55;;;;;;;25.80;14.32;;;;;;;6.54;90.68;98581.78;10083785;29;20084;-77
2022/11/17 23:13:59;;;;;;;21.60;14.15;;;;;;;6.52;90.45;98579.22;10101490;29;20064;-76
2022/11/17 23:19:02;;;;;;;28.23;15.02;;;;;;;6.57;89.96;98589.50;10076393;29;20053;-77
2022/11/17 23:24:08;;;;;;;24.30;14.25;;;;;;;6.71;90.12;98599.72;10061109;29;20049;-77
2022/11/17 23:29:12;;;;;;;23.02;14.38;;;;;;;6.74;89.92;98598.59;10061582;29;20041;-77
2022/11/17 23:34:15;;;;;;;21.67;13.65;;;;;;;6.78;89.71;98600.00;10060087;29;20073;-77
2022/11/17 23:39:18;;;;;;;22.67;13.48;;;;;;;6.84;89.77;98604.75;10060126;29;20045;-77
2022/11/17 23:44:23;;;;;;;23.77;14.52;;;;;;;6.79;89.63;98607.00;10060148;29;20092;-76
2022/11/17 23:49:25;;;;;;;24.27;14.02;;;;;;;6.74;89.52;98606.59;10059844;29;20044;-77
2022/11/17 23:54:28;;;;;;;22.48;14.07;;;;;;;6.75;89.38;98606.47;10059868;29;20129;-77
2022/11/17 23:59:32;;;;;;;26.52;14.52;;;;;;;6.77;89.73;98617.81;10059462;29;20070;-77
